createdAt,value
2022-12-17T00:02:32.574Z,26.50
2022-12-17T00:05:20.542Z,24.90
2022-12-17T00:08:15.418Z,26.80
2022-12-17T00:11:03.582Z,26.60
2022-12-17T00:13:52.032Z,25.60
2022-12-17T00:16:41.026Z,26.20
2022-12-17T00:19:28.526Z,27.80
2022-12-17T00:22:16.793Z,31.80
2022-12-17T00:25:04.982Z,27.70
2022-12-17T00:27:53.392Z,32.40
2022-12-17T00:30:42.043Z,30.50
2022-12-17T00:33:32.983Z,28.60
2022-12-17T00:36:21.532Z,30.10
2022-12-17T00:39:09.534Z,29.20
2022-12-17T00:41:59.590Z,26.20
2022-12-17T00:44:47.625Z,30.40
2022-12-17T00:47:36.264Z,29.70
2022-12-17T00:50:25.211Z,30.40
2022-12-17T00:53:14.714Z,30.10
2022-12-17T00:56:02.612Z,28.30
2022-12-17T00:58:50.660Z,29.00
2022-12-17T05:00:28.878Z,18.80
2022-12-17T05:03:24.348Z,17.90
2022-12-17T05:06:11.778Z,19.70
2022-12-17T05:08:59.523Z,19.90
2022-12-17T05:11:48.045Z,18.90
2022-12-17T05:14:37.346Z,17.50
2022-12-17T05:17:26.146Z,20.90
2022-12-17T05:20:14.597Z,17.70
2022-12-17T05:23:02.069Z,22.80
2022-12-17T05:25:50.531Z,19.60
2022-12-17T05:28:38.625Z,20.40
2022-12-17T05:31:27.049Z,21.90
2022-12-17T05:34:15.162Z,21.50
2022-12-17T05:37:03.395Z,21.30
2022-12-17T05:39:51.776Z,23.50
2022-12-17T05:42:39.987Z,21.30
2022-12-17T05:45:29.173Z,21.70
2022-12-17T05:48:18.437Z,25.40
2022-12-17T05:51:10.608Z,21.10
2022-12-17T05:53:58.915Z,18.90
2022-12-17T05:56:47.222Z,20.10
2022-12-17T05:59:34.970Z,21.10
2022-12-17T06:02:22.617Z,23.40
2022-12-17T06:05:10.144Z,20.40
2022-12-17T06:07:58.800Z,16.80
2022-12-17T06:10:58.148Z,23.00
2022-12-17T06:13:46.243Z,22.70
2022-12-17T06:16:33.806Z,24.30
2022-12-17T06:19:21.544Z,21.70
2022-12-17T06:22:09.950Z,22.80
2022-12-17T06:24:58.357Z,22.60
2022-12-17T06:27:46.457Z,19.50
2022-12-17T06:30:35.170Z,20.70
2022-12-17T06:33:28.976Z,22.30
2022-12-17T06:36:21.995Z,20.50
2022-12-17T06:39:12.128Z,20.30
2022-12-17T06:42:04.159Z,21.70
2022-12-17T06:44:53.838Z,18.90
2022-12-17T06:47:41.558Z,21.60
2022-12-17T06:50:29.718Z,20.70
2022-12-17T06:53:23.568Z,18.40
2022-12-17T06:56:12.238Z,23.00
2022-12-17T06:59:00.015Z,19.70
2022-12-17T07:01:48.498Z,92.00
2022-12-17T07:04:35.930Z,74.30
2022-12-17T07:07:23.678Z,91.40
2022-12-17T07:10:14.331Z,76.20
2022-12-17T07:13:03.041Z,96.20
2022-12-17T07:15:51.058Z,59.00
2022-12-17T07:18:39.278Z,32.00
2022-12-17T07:21:28.011Z,26.30
2022-12-17T07:24:16.536Z,29.60
2022-12-17T07:27:03.873Z,28.90
2022-12-17T07:29:51.977Z,33.70
2022-12-17T07:32:40.141Z,70.70
2022-12-17T07:35:28.120Z,85.40
2022-12-17T07:38:20.539Z,88.70
2022-12-17T07:41:08.145Z,161.00
2022-12-17T07:43:55.942Z,657.30
2022-12-17T07:46:42.816Z,225.10
2022-12-17T07:49:29.596Z,88.10
2022-12-17T07:52:19.936Z,315.50
2022-12-17T07:55:06.766Z,343.70
2022-12-17T07:57:54.514Z,426.80
2022-12-17T08:00:48.992Z,358.60
2022-12-17T08:03:37.508Z,554.40
2022-12-17T08:06:25.791Z,474.40
2022-12-17T08:09:13.453Z,580.80
2022-12-17T08:12:01.000Z,410.90
2022-12-17T08:14:48.762Z,174.00
2022-12-17T08:17:36.644Z,145.20
2022-12-17T08:20:25.472Z,219.90
2022-12-17T08:23:20.249Z,56.90
2022-12-17T08:26:08.605Z,81.90
2022-12-17T08:28:55.777Z,185.90
2022-12-17T08:31:44.429Z,83.20
2022-12-17T08:34:34.177Z,160.80
2022-12-17T08:37:23.289Z,37.40
2022-12-17T08:40:12.408Z,113.40
2022-12-17T08:42:59.909Z,122.20
2022-12-17T08:45:48.633Z,89.50
2022-12-17T08:48:37.748Z,58.80
2022-12-17T08:51:26.653Z,41.90
2022-12-17T08:54:14.451Z,109.70
2022-12-17T08:57:04.116Z,119.70
2022-12-17T08:59:52.109Z,104.40
2022-12-17T09:02:39.587Z,36.00
2022-12-17T09:05:27.469Z,25.70
2022-12-17T09:08:23.528Z,25.70
2022-12-17T09:11:11.818Z,38.80
2022-12-17T09:13:59.155Z,58.60
2022-12-17T09:16:46.816Z,57.00
2022-12-17T09:19:34.127Z,32.60
2022-12-17T09:22:21.367Z,69.40
2022-12-17T09:25:08.123Z,129.10
2022-12-17T09:27:55.241Z,39.10
2022-12-17T09:30:42.241Z,40.60
2022-12-17T09:33:36.333Z,27.40
2022-12-17T09:36:25.813Z,32.80
2022-12-17T09:39:13.670Z,56.50
2022-12-17T09:42:12.306Z,21.40
2022-12-17T09:45:18.170Z,32.30
2022-12-17T09:48:21.854Z,29.50
2022-12-17T09:51:10.674Z,49.90
2022-12-17T09:54:10.346Z,20.50
2022-12-17T09:57:01.549Z,50.90
2022-12-17T09:59:53.327Z,24.00
2022-12-17T10:02:45.123Z,56.20
2022-12-17T10:05:42.805Z,27.70
2022-12-17T10:08:40.118Z,36.40
2022-12-17T10:11:43.499Z,27.90
2022-12-17T10:14:38.967Z,25.70
2022-12-17T10:17:40.182Z,27.20
2022-12-17T10:20:41.306Z,35.90
2022-12-17T10:23:28.123Z,22.10
2022-12-17T10:26:16.640Z,58.00
2022-12-17T10:29:04.384Z,35.20
2022-12-17T10:31:52.586Z,24.70
2022-12-17T10:34:40.313Z,42.20
2022-12-17T10:37:38.131Z,36.80
2022-12-17T10:40:39.161Z,69.30
2022-12-17T10:43:43.720Z,97.30
2022-12-17T10:46:31.670Z,61.20
2022-12-17T10:49:24.462Z,86.30
2022-12-17T10:52:18.615Z,38.00
2022-12-17T10:55:17.023Z,47.40
2022-12-17T10:58:07.210Z,61.30
2022-12-17T11:00:59.459Z,99.60
2022-12-17T11:03:55.777Z,85.10
2022-12-17T11:06:49.818Z,70.90
2022-12-17T11:12:41.260Z,92.70
2022-12-17T11:15:40.168Z,220.90
2022-12-17T11:18:37.718Z,59.80
2022-12-17T11:21:45.197Z,72.10
2022-12-17T11:24:40.089Z,24.60
2022-12-17T11:27:29.562Z,197.70
2022-12-17T11:30:17.004Z,108.10
2022-12-17T11:33:32.477Z,58.40
2022-12-17T11:36:53.451Z,108.00
2022-12-17T11:40:16.850Z,58.20
2022-12-17T11:43:41.315Z,34.60
2022-12-17T11:46:35.765Z,58.70
2022-12-17T11:49:42.398Z,73.70
2022-12-17T11:53:01.641Z,36.90
2022-12-17T11:56:09.973Z,84.10
2022-12-17T11:59:17.944Z,95.40
2022-12-17T12:02:19.377Z,37.30
2022-12-17T12:05:37.114Z,44.50
2022-12-17T12:08:38.317Z,35.10
2022-12-17T12:11:36.500Z,16.70
2022-12-17T12:14:42.742Z,50.80
2022-12-17T12:17:50.457Z,27.90
2022-12-17T12:21:02.663Z,25.20
2022-12-17T12:24:05.271Z,33.90
2022-12-17T12:27:03.441Z,31.70
2022-12-17T12:30:00.881Z,24.10
2022-12-17T12:32:51.542Z,35.70
2022-12-17T12:35:43.639Z,66.70
2022-12-17T12:38:47.779Z,38.10
2022-12-17T12:45:24.443Z,32.00
2022-12-17T12:48:22.700Z,35.00
2022-12-17T12:51:23.347Z,41.50
2022-12-17T12:54:21.777Z,16.50
2022-12-17T12:57:09.103Z,21.50
2022-12-17T12:59:56.931Z,14.70
2022-12-17T13:02:49.280Z,18.20
2022-12-17T13:05:34.520Z,16.30
2022-12-17T13:08:08.531Z,31.40
2022-12-17T13:10:38.445Z,17.80
2022-12-17T13:13:18.516Z,16.80
2022-12-17T13:16:15.460Z,17.40
2022-12-17T13:18:43.502Z,24.30
2022-12-17T13:21:17.535Z,18.20
2022-12-17T13:23:45.656Z,16.40
2022-12-17T13:26:18.442Z,15.60
2022-12-17T13:29:20.364Z,21.60
2022-12-17T13:32:40.259Z,16.30
2022-12-17T13:35:43.771Z,16.50
2022-12-17T13:38:33.554Z,23.40
2022-12-17T13:41:17.168Z,32.10
2022-12-17T13:44:02.034Z,30.20
2022-12-17T13:46:46.716Z,24.00
2022-12-17T13:49:28.471Z,20.10
2022-12-17T13:52:18.351Z,18.60
2022-12-17T13:54:47.910Z,16.40
2022-12-17T13:57:19.741Z,17.60
2022-12-17T13:59:52.530Z,12.40
2022-12-17T14:02:36.922Z,13.80
2022-12-17T14:05:43.053Z,15.40
2022-12-17T14:08:19.813Z,16.20
2022-12-17T14:10:53.331Z,17.50
2022-12-17T14:15:53.031Z,16.90
2022-12-17T14:18:22.887Z,25.40
2022-12-17T14:20:56.009Z,23.20
2022-12-17T14:23:31.026Z,22.10
2022-12-17T14:26:00.097Z,20.30
2022-12-17T14:28:37.804Z,22.20
2022-12-17T14:31:28.568Z,19.70
2022-12-17T14:34:11.793Z,18.60
2022-12-17T14:36:44.464Z,17.80
2022-12-17T14:39:20.012Z,17.40
2022-12-17T14:42:07.515Z,17.90
2022-12-17T14:44:38.537Z,215.60
2022-12-17T14:47:27.016Z,45.00
2022-12-17T14:50:00.595Z,58.90
2022-12-17T14:52:37.683Z,183.50
2022-12-17T14:55:25.406Z,72.80
2022-12-17T14:58:07.974Z,25.30
2022-12-17T15:00:44.150Z,55.60
2022-12-17T15:03:17.456Z,18.90
2022-12-17T15:05:55.698Z,43.70
2022-12-17T15:08:24.606Z,140.00
2022-12-17T15:10:56.556Z,60.80
2022-12-17T15:13:25.064Z,32.10
2022-12-17T15:15:53.993Z,42.20
2022-12-17T15:18:23.010Z,26.10
2022-12-17T15:20:51.203Z,189.50
2022-12-17T15:23:23.182Z,33.80
2022-12-17T15:25:53.581Z,27.80
2022-12-17T15:28:23.033Z,22.80
2022-12-17T15:30:51.311Z,16.80
2022-12-17T15:33:19.783Z,18.50
2022-12-17T15:35:48.799Z,35.60
2022-12-17T15:38:17.196Z,21.10
2022-12-17T15:40:45.277Z,35.90
2022-12-17T15:43:13.862Z,23.90
2022-12-17T15:45:50.618Z,19.30
2022-12-17T15:48:21.579Z,33.60
2022-12-17T15:50:49.934Z,42.90
2022-12-17T15:53:18.992Z,56.00
2022-12-17T15:55:47.257Z,28.30
2022-12-17T15:58:16.502Z,36.10
2022-12-17T16:00:44.675Z,38.70
2022-12-17T16:03:13.047Z,41.10
2022-12-17T16:05:41.471Z,20.30
2022-12-17T16:08:09.698Z,15.50
2022-12-17T16:10:38.520Z,17.70
2022-12-17T16:13:07.480Z,21.30
2022-12-17T16:15:35.854Z,19.30
2022-12-17T16:18:04.213Z,24.90
2022-12-17T16:20:32.730Z,17.70
2022-12-17T16:23:01.391Z,13.20
2022-12-17T16:25:30.387Z,23.10
2022-12-17T16:27:59.438Z,20.80
2022-12-17T16:30:28.458Z,14.00
2022-12-17T16:32:59.231Z,12.60
2022-12-17T16:35:30.697Z,22.20
2022-12-17T16:37:58.836Z,15.80
2022-12-17T16:40:29.452Z,21.80
2022-12-17T16:42:57.608Z,40.00
2022-12-17T16:45:25.720Z,14.60
2022-12-17T16:47:53.945Z,14.80
2022-12-17T16:50:22.889Z,16.50
2022-12-17T16:52:51.981Z,22.70
2022-12-17T16:55:21.058Z,20.60
2022-12-17T16:57:49.384Z,12.30
2022-12-17T17:00:17.808Z,13.90
2022-12-17T17:02:53.011Z,17.30
2022-12-17T17:05:22.018Z,20.40
2022-12-17T17:07:51.120Z,31.60
2022-12-17T17:10:20.058Z,19.30
2022-12-17T17:12:51.886Z,16.60
2022-12-17T17:15:23.966Z,19.40
2022-12-17T17:17:53.864Z,17.30
2022-12-17T17:20:25.250Z,15.90
2022-12-17T17:22:57.056Z,14.20
2022-12-17T17:25:38.531Z,15.90
2022-12-17T17:28:13.780Z,15.80
2022-12-17T17:30:42.964Z,15.40
2022-12-17T17:33:12.260Z,15.70
2022-12-17T17:35:41.097Z,22.90
2022-12-17T17:38:10.227Z,18.70
2022-12-17T17:40:39.566Z,29.30
2022-12-17T17:43:08.472Z,22.10
2022-12-17T17:45:41.033Z,23.60
2022-12-17T17:48:10.413Z,17.30
2022-12-17T17:50:41.860Z,18.90
2022-12-17T17:53:10.832Z,20.00
2022-12-17T17:55:39.632Z,22.10
2022-12-17T17:58:11.567Z,15.90
2022-12-17T18:00:40.674Z,19.90
2022-12-17T18:03:09.760Z,18.30
2022-12-17T18:05:45.138Z,22.80
2022-12-17T18:08:14.272Z,33.90
2022-12-17T18:10:44.253Z,17.60
2022-12-17T18:13:31.920Z,16.30
2022-12-17T18:16:02.074Z,16.60
2022-12-17T18:18:30.612Z,16.90
2022-12-17T18:21:04.752Z,17.10
2022-12-17T18:23:36.082Z,21.60
2022-12-17T18:26:12.996Z,27.10
2022-12-17T18:28:45.187Z,19.50
2022-12-17T18:31:22.680Z,48.20
2022-12-17T18:33:55.804Z,251.60
2022-12-17T18:36:30.772Z,292.80
2022-12-17T18:39:02.605Z,122.90
2022-12-17T18:41:51.247Z,82.70
2022-12-17T18:44:21.154Z,71.50
2022-12-17T18:46:50.619Z,93.10
2022-12-17T18:49:21.933Z,26.10
2022-12-17T18:51:53.179Z,27.30
2022-12-17T18:54:28.264Z,19.70
2022-12-17T18:57:02.139Z,132.20
2022-12-17T18:59:32.111Z,92.70
2022-12-17T19:02:00.894Z,104.90
2022-12-17T19:04:29.061Z,31.70
2022-12-17T19:06:57.071Z,120.10
2022-12-17T19:09:29.511Z,41.60
2022-12-17T19:11:59.075Z,143.50
2022-12-17T19:14:28.448Z,55.90
2022-12-17T19:16:58.523Z,21.90
2022-12-17T19:19:27.907Z,20.00
2022-12-17T19:22:00.379Z,17.40
2022-12-17T19:24:29.972Z,18.60
2022-12-17T19:26:59.740Z,65.10
2022-12-17T19:29:29.010Z,29.00
2022-12-17T19:32:00.944Z,48.10
2022-12-17T19:34:30.164Z,40.30
2022-12-17T19:36:59.210Z,63.90
2022-12-17T19:39:27.713Z,46.80
2022-12-17T19:41:56.077Z,54.20
2022-12-17T19:44:25.546Z,117.90
2022-12-17T19:46:54.784Z,57.20
2022-12-17T19:49:23.582Z,78.10
2022-12-17T19:51:51.884Z,59.30
2022-12-17T19:54:20.269Z,54.90
2022-12-17T19:56:49.487Z,70.70
2022-12-17T19:59:17.931Z,83.20
2022-12-17T20:01:49.886Z,39.90
2022-12-17T20:04:19.347Z,50.30
2022-12-17T20:06:48.071Z,33.90
2022-12-17T20:09:17.645Z,50.90
2022-12-17T20:11:46.218Z,61.10
2022-12-17T20:14:17.935Z,35.50
2022-12-17T20:16:52.538Z,58.90
2022-12-17T20:19:26.632Z,62.50
2022-12-17T20:21:55.677Z,45.90
2022-12-17T20:24:30.815Z,52.20
2022-12-17T20:27:01.247Z,27.30
2022-12-17T20:29:30.160Z,34.70
2022-12-17T20:31:58.806Z,31.00
2022-12-17T20:34:28.287Z,34.70
2022-12-17T20:36:57.139Z,38.20
2022-12-17T20:39:28.188Z,30.50
2022-12-17T20:41:57.557Z,33.30
2022-12-17T20:44:26.675Z,32.30
2022-12-17T20:46:55.428Z,27.40
2022-12-17T20:49:23.517Z,34.30
2022-12-17T20:51:52.660Z,45.70
2022-12-17T20:54:22.062Z,61.40
2022-12-17T20:56:50.582Z,36.50
2022-12-17T20:59:20.043Z,35.50
2022-12-17T21:01:52.999Z,36.30
2022-12-17T21:04:24.521Z,39.30
2022-12-17T21:06:53.211Z,34.40
2022-12-17T21:09:22.802Z,69.30
2022-12-17T21:11:51.577Z,42.00
2022-12-17T21:14:21.290Z,38.60
2022-12-17T21:16:49.502Z,35.10
2022-12-17T21:19:20.278Z,32.80
2022-12-17T21:21:49.089Z,33.40
2022-12-17T21:24:17.488Z,32.00
2022-12-17T21:26:47.452Z,30.30
2022-12-17T21:29:19.963Z,34.50
2022-12-17T21:31:51.706Z,36.20
2022-12-17T21:34:22.547Z,28.50
2022-12-17T21:36:52.753Z,27.20
2022-12-17T21:39:22.467Z,29.80
2022-12-17T21:42:14.299Z,30.20
2022-12-17T21:44:42.665Z,26.90
2022-12-17T21:47:14.206Z,46.80
2022-12-17T21:49:44.462Z,54.90
2022-12-17T21:52:13.750Z,43.70
2022-12-17T21:54:42.239Z,78.90
2022-12-17T21:57:12.319Z,55.50
2022-12-17T21:59:41.938Z,48.50
2022-12-17T22:02:11.458Z,46.50
2022-12-17T22:04:40.908Z,33.80
2022-12-17T22:07:12.784Z,33.20
2022-12-17T22:10:30.447Z,37.70
2022-12-17T22:12:57.015Z,22.70
2022-12-17T22:15:28.112Z,36.50
2022-12-17T22:18:01.190Z,34.60
2022-12-17T22:20:30.626Z,52.00
2022-12-17T22:22:59.528Z,33.90
2022-12-17T22:25:28.851Z,33.00
2022-12-17T22:27:57.579Z,28.80
2022-12-17T22:30:44.976Z,29.70
2022-12-17T22:33:33.729Z,30.40
2022-12-17T22:38:32.784Z,34.00
2022-12-17T22:41:05.141Z,25.90
2022-12-17T22:44:37.549Z,31.40
2022-12-17T22:44:54.567Z,27.00
2022-12-17T22:47:26.625Z,32.90
2022-12-17T22:49:55.667Z,32.40
2022-12-17T22:52:25.338Z,31.80
2022-12-17T22:54:55.157Z,33.40
2022-12-17T22:57:36.431Z,29.50
2022-12-17T23:00:14.408Z,30.00
2022-12-17T23:02:43.247Z,30.80
2022-12-17T23:05:12.245Z,28.70
2022-12-17T23:07:41.560Z,27.60
2022-12-17T23:10:09.940Z,27.20
2022-12-17T23:12:57.188Z,27.20
2022-12-17T23:15:31.315Z,28.90
2022-12-17T23:18:02.235Z,29.20
2022-12-17T23:20:33.210Z,30.80
2022-12-17T23:23:03.299Z,27.60
2022-12-17T23:25:32.701Z,27.30
2022-12-17T23:28:01.843Z,26.90
2022-12-17T23:30:30.886Z,28.10
2022-12-17T23:32:59.974Z,26.00
2022-12-17T23:35:28.881Z,28.40
2022-12-17T23:37:58.269Z,25.20
2022-12-17T23:40:27.165Z,25.30
2022-12-17T23:42:57.747Z,26.40
2022-12-17T23:45:26.472Z,27.60
2022-12-17T23:47:57.721Z,25.00
2022-12-17T23:50:26.633Z,26.60
2022-12-17T23:52:54.710Z,27.50
2022-12-17T23:55:23.836Z,25.20
2022-12-17T23:57:57.369Z,27.50
